Ranchos de Taos, New Mexico
Current Conditions -  °F | °C
As of 2:15 AM on Wednesday 22 Oct 2014 (Local Time) from KSKX Reporting Station
Overcast Overcast  
Wind Chill: 45°   Ceiling: 2100
Heat Index: 48°   Visibility: 10mi
Dew Point: 43°   Wind: 7mph
Humidity: 82%   Direction: 350°N
Pressure: 30.19"   Gusts: NA
Location:  36.36°N, 105.61°W
Report Text: KSKX 220815Z AUTO 35006KT 10SM OVC021 09/06 A3019 RMK AO1
Loading
Personal Weather Stations






























Interactive Weather Map
Tropical Storm Tracking
New forecast layout! Learn more

10-Day Weather Forecast

Advertisements
Track Severe Weather on mobile